Shelby — WCV6157 — position and weather

sailwx.info

Track history (hours):
 
Tides and Currents Weather Stations Pressure Air Temp Water Temp Dewpoint Dewpoint Depression Visibility Wind Speed Wind Dir Waves Ship Positions

Shelby

Owner: WEEKS MARINE, INC., CRANFORD, NJ. More information available from US FCC via Universal Licensing System and Coast Guard Vessel Documentation Center.

Last reported at 2017-Dec-10 22:10 UTC. Time now 2017-Dec-11 13:22 UTC.
Position N 40°57' W 073°54'.

Length 22 m; draft 3.1 m.

Type: Tug. MMSI: 366902344.

Date/timePositionNaut miles runAvg speedWind from/ knotsBaromVisibWave heightAir tempDewpointWater temp
2017-Dec-10 22:10N 40°57' W 073°54'210.4
2017-Dec-10 21:56N 40°55' W 073°55'510.7
2017-Dec-10 21:31N 40°51' W 073°57'611.0
2017-Dec-10 21:00N 40°46' W 074°01'510.6
2017-Dec-10 20:31N 40°41' W 074°03'1 2.8
2017-Dec-10 20:01N 40°41' W 074°05'0 0.0
2017-Dec-10 19:31N 40°41' W 074°05'0 0.0
2017-Dec-10 19:01N 40°41' W 074°05'0 0.0
2017-Dec-10 18:30N 40°41' W 074°05'0 0.0
2017-Dec-10 18:01N 40°41' W 074°05'0 0.0
2017-Dec-10 17:31N 40°41' W 074°05'0 0.0
2017-Dec-10 17:01N 40°41' W 074°05'0 0.2
2017-Dec-10 16:31N 40°41' W 074°04'1 2.7
2017-Dec-10 16:00N 40°39' W 074°05'3 6.3
2017-Dec-10 15:29N 40°39' W 074°09'3 5.5
2017-Dec-10 15:00N 40°41' W 074°10'0 0.1
2017-Dec-10 14:30N 40°41' W 074°10'1 2.4
2017-Dec-10 14:01N 40°40' W 074°08'3 5.7
2017-Dec-10 13:30N 40°39' W 074°05'1 3.0
2017-Dec-10 13:01N 40°41' W 074°05'0 0.2
2017-Dec-10 12:31N 40°41' W 074°05'0 0.0
2017-Dec-10 12:01N 40°41' W 074°05'0 0.0
2017-Dec-10 11:31N 40°41' W 074°05'0 0.0
2017-Dec-10 11:00N 40°41' W 074°05'0 0.0
2017-Dec-10 10:30N 40°41' W 074°05'0 0.0
2017-Dec-10 10:01N 40°41' W 074°05'0 0.0
2017-Dec-10 09:30N 40°41' W 074°05'0 0.0
2017-Dec-10 09:00N 40°41' W 074°05'0 0.0
2017-Dec-10 08:30N 40°41' W 074°05'0 0.0
2017-Dec-10 08:00N 40°41' W 074°05'0 0.0
2017-Dec-10 07:30N 40°41' W 074°05'0 0.0
2017-Dec-10 06:59N 40°41' W 074°05'0 0.0
2017-Dec-10 06:31N 40°41' W 074°05'0 0.0
2017-Dec-10 06:01N 40°41' W 074°05'0 0.0
2017-Dec-10 05:31N 40°41' W 074°05'0 0.0
2017-Dec-10 05:01N 40°41' W 074°05'0 0.0
2017-Dec-10 04:30N 40°41' W 074°05'0 0.0
2017-Dec-10 04:00N 40°41' W 074°05'0 0.0
2017-Dec-10 03:30N 40°41' W 074°05'0 0.0
2017-Dec-10 03:01N 40°41' W 074°05'0 0.0
2017-Dec-10 02:30N 40°41' W 074°05'0 0.0
2017-Dec-10 02:00N 40°41' W 074°05'0 0.0
2017-Dec-10 01:31N 40°41' W 074°05'0 0.0
2017-Dec-10 01:00N 40°41' W 074°05'0 0.0
2017-Dec-10 00:30N 40°41' W 074°05'0 0.0
2017-Dec-10 00:01N 40°41' W 074°05'0 0.0
2017-Dec-09 23:30N 40°41' W 074°05'0 0.0
2017-Dec-09 23:00N 40°41' W 074°05'0 0.0
2017-Dec-09 22:31N 40°41' W 074°05'0 0.0
2017-Dec-09 22:01N 40°41' W 074°05'0 0.0
2017-Dec-09 21:31N 40°41' W 074°05'0 0.5
2017-Dec-09 21:01N 40°40' W 074°04'0 0.2
2017-Dec-09 20:30N 40°41' W 074°04'0 0.3
2017-Dec-09 20:00N 40°41' W 074°04'0 0.3
2017-Dec-09 19:31N 40°41' W 074°04'0 0.4
2017-Dec-09 19:01N 40°41' W 074°05'0 0.0
2017-Dec-09 18:31N 40°41' W 074°05'0 0.0
2017-Dec-09 18:01N 40°41' W 074°05'0 0.0
2017-Dec-09 17:31N 40°41' W 074°05'0 0.0
2017-Dec-09 17:01N 40°41' W 074°05'0 0.0
2017-Dec-09 16:31N 40°41' W 074°05'0 0.0
2017-Dec-09 16:01N 40°41' W 074°05'0 0.0
2017-Dec-09 15:31N 40°41' W 074°05'0 0.3
2017-Dec-09 15:01N 40°40' W 074°04'0 0.0
2017-Dec-09 14:31N 40°40' W 074°04'0 0.2
2017-Dec-09 14:01N 40°41' W 074°04'0 0.6
2017-Dec-09 13:31N 40°40' W 074°04'0 0.2
2017-Dec-09 13:00N 40°40' W 074°04'0 0.5
2017-Dec-09 12:31N 40°41' W 074°05'0 0.0
2017-Dec-09 12:01N 40°41' W 074°05'0 0.0
2017-Dec-09 11:31N 40°41' W 074°05'0 0.0
2017-Dec-09 11:01N 40°41' W 074°05'0 0.0
2017-Dec-09 10:31N 40°41' W 074°05'0 0.0
2017-Dec-09 10:01N 40°41' W 074°05'0 0.0
2017-Dec-09 09:30N 40°41' W 074°05'0 0.0
2017-Dec-09 09:01N 40°41' W 074°05'0 0.0
2017-Dec-09 08:31N 40°41' W 074°05'0 0.0
2017-Dec-09 08:00N 40°41' W 074°05'0 0.0
2017-Dec-09 07:31N 40°41' W 074°05'0 0.0
2017-Dec-09 07:00N 40°41' W 074°05'0 0.0
2017-Dec-09 06:31N 40°41' W 074°05'0 0.0
2017-Dec-09 06:00N 40°41' W 074°05'0 0.0
2017-Dec-09 05:30N 40°41' W 074°05'0 0.0
2017-Dec-09 05:01N 40°41' W 074°05'0 0.0
2017-Dec-09 04:31N 40°41' W 074°05'0 0.0
2017-Dec-09 04:01N 40°41' W 074°05'0 0.0
2017-Dec-09 03:31N 40°41' W 074°05'0 0.0
2017-Dec-09 03:01N 40°41' W 074°05'0 0.0
2017-Dec-09 02:31N 40°41' W 074°05'0 0.0
2017-Dec-09 02:01N 40°41' W 074°05'0 0.0
2017-Dec-09 01:31N 40°41' W 074°05'0 0.0
2017-Dec-09 01:01N 40°41' W 074°05'0 0.0
2017-Dec-09 00:31N 40°41' W 074°05'0 0.0
2017-Dec-09 00:01N 40°41' W 074°05'2 3.5
2017-Dec-08 23:31N 40°41' W 074°02'712.7
2017-Dec-08 23:00N 40°47' W 073°60'612.6
2017-Dec-08 22:30N 40°53' W 073°56'  
2017-Dec-03 22:37N 40°58' W 073°54'1 8.9
2017-Dec-03 22:28N 40°56' W 073°54'4 8.4
2017-Dec-03 21:59N 40°53' W 073°56'4 7.7
2017-Dec-03 21:29N 40°49' W 073°58'4 7.4
2017-Dec-03 21:00N 40°46' W 074°00'4 7.5
2017-Dec-03 20:30N 40°42' W 074°02'3 5.4
2017-Dec-03 20:00N 40°41' W 074°04'0 0.1
2017-Dec-03 19:30N 40°41' W 074°05'0 0.0
2017-Dec-03 19:00N 40°41' W 074°05'0 0.1
2017-Dec-03 18:30N 40°41' W 074°05'0 0.0
2017-Dec-03 18:00N 40°41' W 074°05'0 0.0
2017-Dec-03 17:30N 40°41' W 074°05'0 0.0
2017-Dec-03 17:00N 40°41' W 074°05'0 0.0
2017-Dec-03 16:30N 40°41' W 074°05'0 0.0
2017-Dec-03 16:00N 40°41' W 074°05'0 0.0
2017-Dec-03 15:30N 40°41' W 074°05'0 0.0
2017-Dec-03 15:00N 40°41' W 074°05'0 0.0
2017-Dec-03 14:30N 40°41' W 074°05'0 0.0
2017-Dec-03 14:00N 40°41' W 074°05'0 0.0
2017-Dec-03 13:30N 40°41' W 074°05'0 0.0
2017-Dec-03 13:00N 40°41' W 074°05'0 0.0
2017-Dec-03 12:30N 40°41' W 074°05'0 0.0
2017-Dec-03 12:00N 40°41' W 074°05'0 0.0
2017-Dec-03 11:30N 40°41' W 074°05'0 0.0
2017-Dec-03 11:00N 40°41' W 074°05'0 0.0
2017-Dec-03 10:30N 40°41' W 074°05'0 0.0
2017-Dec-03 10:00N 40°41' W 074°05'0 0.0
2017-Dec-03 09:30N 40°41' W 074°05'0 0.0
2017-Dec-03 09:00N 40°41' W 074°05'0 0.0
2017-Dec-03 08:30N 40°41' W 074°05'0 0.0
2017-Dec-03 08:00N 40°41' W 074°05'0 0.0
2017-Dec-03 07:30N 40°41' W 074°05'0 0.0
2017-Dec-03 07:00N 40°41' W 074°05'0 0.0
2017-Dec-03 06:30N 40°41' W 074°05'0 0.0
2017-Dec-03 06:00N 40°41' W 074°05'0 0.0
2017-Dec-03 05:30N 40°41' W 074°05'0 0.0
2017-Dec-03 05:00N 40°41' W 074°05'0 0.0
2017-Dec-03 04:30N 40°41' W 074°05'0 0.0
2017-Dec-03 04:00N 40°41' W 074°05'0 0.0
2017-Dec-03 03:30N 40°41' W 074°05'0 0.0
2017-Dec-03 03:00N 40°41' W 074°05'0 0.0
2017-Dec-03 02:30N 40°41' W 074°05'0 0.0
2017-Dec-03 02:00N 40°41' W 074°05'0 0.0
2017-Dec-03 01:30N 40°41' W 074°05'0 0.0
2017-Dec-03 01:00N 40°41' W 074°05'0 0.0
2017-Dec-03 00:30N 40°41' W 074°05'0 0.0
2017-Dec-03 00:00N 40°41' W 074°05'0 0.0
2017-Dec-02 23:30N 40°41' W 074°05'0 0.0
2017-Dec-02 23:00N 40°41' W 074°05'0 0.0
2017-Dec-02 22:30N 40°41' W 074°05'0 0.0
2017-Dec-02 22:00N 40°41' W 074°05'0 0.0
2017-Dec-02 21:30N 40°41' W 074°05'0 0.0
2017-Dec-02 21:00N 40°41' W 074°05'0 0.0
2017-Dec-02 20:30N 40°41' W 074°05'0 0.0
2017-Dec-02 20:00N 40°41' W 074°05'0 0.0
2017-Dec-02 19:30N 40°41' W 074°05'0 0.0
2017-Dec-02 19:00N 40°41' W 074°05'0 0.4
2017-Dec-02 18:30N 40°40' W 074°04'1 1.3
2017-Dec-02 18:00N 40°40' W 074°04'510.8
2017-Dec-02 17:30N 40°44' W 073°58'611.5
2017-Dec-02 17:01N 40°48' W 073°54'0 0.1
2017-Dec-02 16:30N 40°48' W 073°54'0 0.0
2017-Dec-02 16:00N 40°48' W 073°54'0 0.3
2017-Dec-02 15:30N 40°48' W 073°54'0 0.0
2017-Dec-02 15:00N 40°48' W 073°54'2 3.8
2017-Dec-02 14:30N 40°47' W 073°55'3 6.7
2017-Dec-02 14:00N 40°44' W 073°58'4 7.7
2017-Dec-02 13:30N 40°42' W 074°02'2 4.9
2017-Dec-02 13:00N 40°41' W 074°05'0 0.0
2017-Dec-02 12:30N 40°41' W 074°05'0 0.0
2017-Dec-02 12:00N 40°41' W 074°05'0 0.0
2017-Dec-02 11:30N 40°41' W 074°05'0 0.0
2017-Dec-02 11:00N 40°41' W 074°05'0 0.0
2017-Dec-02 10:30N 40°41' W 074°05'0 0.0
2017-Dec-02 10:00N 40°41' W 074°05'0 0.0
2017-Dec-02 09:30N 40°41' W 074°05'0 0.0
2017-Dec-02 09:00N 40°41' W 074°05'0 0.0
2017-Dec-02 08:30N 40°41' W 074°05'0 0.0
2017-Dec-02 08:00N 40°41' W 074°05'0 0.0
2017-Dec-02 07:30N 40°41' W 074°05'0 0.0
2017-Dec-02 07:00N 40°41' W 074°05'0 0.0
2017-Dec-02 06:30N 40°41' W 074°05'0 0.0
2017-Dec-02 06:00N 40°41' W 074°05'0 0.0
2017-Dec-02 05:30N 40°41' W 074°05'0 0.0
2017-Dec-02 05:00N 40°41' W 074°05'0 0.0
2017-Dec-02 04:30N 40°41' W 074°05'0 0.0
2017-Dec-02 04:00N 40°41' W 074°05'0 0.0
2017-Dec-02 03:30N 40°41' W 074°05'0 0.0
2017-Dec-02 03:00N 40°41' W 074°05'0 0.0
2017-Dec-02 02:30N 40°41' W 074°05'0 0.0
2017-Dec-02 02:00N 40°41' W 074°05'0 0.0
2017-Dec-02 01:30N 40°41' W 074°05'0 0.2
2017-Dec-02 01:01N 40°41' W 074°04'3 5.2
2017-Dec-02 00:30N 40°42' W 074°02'4 8.1
2017-Dec-02 00:01N 40°46' W 074°00'4 7.4
2017-Dec-01 23:30N 40°49' W 073°58'4 7.5
2017-Dec-01 23:00N 40°53' W 073°56'  
Track history (hours):
 
Tides and Currents Weather Stations Pressure Air Temp Water Temp Dewpoint Dewpoint Depression Visibility Wind Speed Wind Dir Waves Ship Positions

Shelby

Owner: WEEKS MARINE, INC., CRANFORD, NJ. More information available from US FCC via Universal Licensing System and Coast Guard Vessel Documentation Center.

Last reported at 2017-Dec-10 22:10 UTC. Time now 2017-Dec-11 13:22 UTC.
Position N 40°57' W 073°54'.

Length 22 m; draft 3.1 m.

Type: Tug. MMSI: 366902344.

Date/timePositionNaut miles runAvg speedWind from/ knotsBaromVisibWave heightAir tempDewpointWater temp
2017-Dec-10 22:10N 40°57' W 073°54'210.4
2017-Dec-10 21:56N 40°55' W 073°55'510.7
2017-Dec-10 21:31N 40°51' W 073°57'611.0
2017-Dec-10 21:00N 40°46' W 074°01'510.6
2017-Dec-10 20:31N 40°41' W 074°03'1 2.8
2017-Dec-10 20:01N 40°41' W 074°05'0 0.0
2017-Dec-10 19:31N 40°41' W 074°05'0 0.0
2017-Dec-10 19:01N 40°41' W 074°05'0 0.0
2017-Dec-10 18:30N 40°41' W 074°05'0 0.0
2017-Dec-10 18:01N 40°41' W 074°05'0 0.0
2017-Dec-10 17:31N 40°41' W 074°05'0 0.0
2017-Dec-10 17:01N 40°41' W 074°05'0 0.2
2017-Dec-10 16:31N 40°41' W 074°04'1 2.7
2017-Dec-10 16:00N 40°39' W 074°05'3 6.3
2017-Dec-10 15:29N 40°39' W 074°09'3 5.5
2017-Dec-10 15:00N 40°41' W 074°10'0 0.1
2017-Dec-10 14:30N 40°41' W 074°10'1 2.4
2017-Dec-10 14:01N 40°40' W 074°08'3 5.7
2017-Dec-10 13:30N 40°39' W 074°05'1 3.0
2017-Dec-10 13:01N 40°41' W 074°05'0 0.2
2017-Dec-10 12:31N 40°41' W 074°05'0 0.0
2017-Dec-10 12:01N 40°41' W 074°05'0 0.0
2017-Dec-10 11:31N 40°41' W 074°05'0 0.0
2017-Dec-10 11:00N 40°41' W 074°05'0 0.0
2017-Dec-10 10:30N 40°41' W 074°05'0 0.0
2017-Dec-10 10:01N 40°41' W 074°05'0 0.0
2017-Dec-10 09:30N 40°41' W 074°05'0 0.0
2017-Dec-10 09:00N 40°41' W 074°05'0 0.0
2017-Dec-10 08:30N 40°41' W 074°05'0 0.0
2017-Dec-10 08:00N 40°41' W 074°05'0 0.0
2017-Dec-10 07:30N 40°41' W 074°05'0 0.0
2017-Dec-10 06:59N 40°41' W 074°05'0 0.0
2017-Dec-10 06:31N 40°41' W 074°05'0 0.0
2017-Dec-10 06:01N 40°41' W 074°05'0 0.0
2017-Dec-10 05:31N 40°41' W 074°05'0 0.0
2017-Dec-10 05:01N 40°41' W 074°05'0 0.0
2017-Dec-10 04:30N 40°41' W 074°05'0 0.0
2017-Dec-10 04:00N 40°41' W 074°05'0 0.0
2017-Dec-10 03:30N 40°41' W 074°05'0 0.0
2017-Dec-10 03:01N 40°41' W 074°05'0 0.0
2017-Dec-10 02:30N 40°41' W 074°05'0 0.0
2017-Dec-10 02:00N 40°41' W 074°05'0 0.0
2017-Dec-10 01:31N 40°41' W 074°05'0 0.0
2017-Dec-10 01:00N 40°41' W 074°05'0 0.0
2017-Dec-10 00:30N 40°41' W 074°05'0 0.0
2017-Dec-10 00:01N 40°41' W 074°05'0 0.0
2017-Dec-09 23:30N 40°41' W 074°05'0 0.0
2017-Dec-09 23:00N 40°41' W 074°05'0 0.0
2017-Dec-09 22:31N 40°41' W 074°05'0 0.0
2017-Dec-09 22:01N 40°41' W 074°05'0 0.0
2017-Dec-09 21:31N 40°41' W 074°05'0 0.5
2017-Dec-09 21:01N 40°40' W 074°04'0 0.2
2017-Dec-09 20:30N 40°41' W 074°04'0 0.3
2017-Dec-09 20:00N 40°41' W 074°04'0 0.3
2017-Dec-09 19:31N 40°41' W 074°04'0 0.4
2017-Dec-09 19:01N 40°41' W 074°05'0 0.0
2017-Dec-09 18:31N 40°41' W 074°05'0 0.0
2017-Dec-09 18:01N 40°41' W 074°05'0 0.0
2017-Dec-09 17:31N 40°41' W 074°05'0 0.0
2017-Dec-09 17:01N 40°41' W 074°05'0 0.0
2017-Dec-09 16:31N 40°41' W 074°05'0 0.0
2017-Dec-09 16:01N 40°41' W 074°05'0 0.0
2017-Dec-09 15:31N 40°41' W 074°05'0 0.3
2017-Dec-09 15:01N 40°40' W 074°04'0 0.0
2017-Dec-09 14:31N 40°40' W 074°04'0 0.2
2017-Dec-09 14:01N 40°41' W 074°04'0 0.6
2017-Dec-09 13:31N 40°40' W 074°04'0 0.2
2017-Dec-09 13:00N 40°40' W 074°04'0 0.5
2017-Dec-09 12:31N 40°41' W 074°05'0 0.0
2017-Dec-09 12:01N 40°41' W 074°05'0 0.0
2017-Dec-09 11:31N 40°41' W 074°05'0 0.0
2017-Dec-09 11:01N 40°41' W 074°05'0 0.0
2017-Dec-09 10:31N 40°41' W 074°05'0 0.0
2017-Dec-09 10:01N 40°41' W 074°05'0 0.0
2017-Dec-09 09:30N 40°41' W 074°05'0 0.0
2017-Dec-09 09:01N 40°41' W 074°05'0 0.0
2017-Dec-09 08:31N 40°41' W 074°05'0 0.0
2017-Dec-09 08:00N 40°41' W 074°05'0 0.0
2017-Dec-09 07:31N 40°41' W 074°05'0 0.0
2017-Dec-09 07:00N 40°41' W 074°05'0 0.0
2017-Dec-09 06:31N 40°41' W 074°05'0 0.0
2017-Dec-09 06:00N 40°41' W 074°05'0 0.0
2017-Dec-09 05:30N 40°41' W 074°05'0 0.0
2017-Dec-09 05:01N 40°41' W 074°05'0 0.0
2017-Dec-09 04:31N 40°41' W 074°05'0 0.0
2017-Dec-09 04:01N 40°41' W 074°05'0 0.0
2017-Dec-09 03:31N 40°41' W 074°05'0 0.0
2017-Dec-09 03:01N 40°41' W 074°05'0 0.0
2017-Dec-09 02:31N 40°41' W 074°05'0 0.0
2017-Dec-09 02:01N 40°41' W 074°05'0 0.0
2017-Dec-09 01:31N 40°41' W 074°05'0 0.0
2017-Dec-09 01:01N 40°41' W 074°05'0 0.0
2017-Dec-09 00:31N 40°41' W 074°05'0 0.0
2017-Dec-09 00:01N 40°41' W 074°05'2 3.5
2017-Dec-08 23:31N 40°41' W 074°02'712.7
2017-Dec-08 23:00N 40°47' W 073°60'612.6
2017-Dec-08 22:30N 40°53' W 073°56'  
2017-Dec-03 22:37N 40°58' W 073°54'1 8.9
2017-Dec-03 22:28N 40°56' W 073°54'4 8.4
2017-Dec-03 21:59N 40°53' W 073°56'4 7.7
2017-Dec-03 21:29N 40°49' W 073°58'4 7.4
2017-Dec-03 21:00N 40°46' W 074°00'4 7.5
2017-Dec-03 20:30N 40°42' W 074°02'3 5.4
2017-Dec-03 20:00N 40°41' W 074°04'0 0.1
2017-Dec-03 19:30N 40°41' W 074°05'0 0.0
2017-Dec-03 19:00N 40°41' W 074°05'0 0.1
2017-Dec-03 18:30N 40°41' W 074°05'0 0.0
2017-Dec-03 18:00N 40°41' W 074°05'0 0.0
2017-Dec-03 17:30N 40°41' W 074°05'0 0.0
2017-Dec-03 17:00N 40°41' W 074°05'0 0.0
2017-Dec-03 16:30N 40°41' W 074°05'0 0.0
2017-Dec-03 16:00N 40°41' W 074°05'0 0.0
2017-Dec-03 15:30N 40°41' W 074°05'0 0.0
2017-Dec-03 15:00N 40°41' W 074°05'0 0.0
2017-Dec-03 14:30N 40°41' W 074°05'0 0.0
2017-Dec-03 14:00N 40°41' W 074°05'0 0.0
2017-Dec-03 13:30N 40°41' W 074°05'0 0.0
2017-Dec-03 13:00N 40°41' W 074°05'0 0.0
2017-Dec-03 12:30N 40°41' W 074°05'0 0.0
2017-Dec-03 12:00N 40°41' W 074°05'0 0.0
2017-Dec-03 11:30N 40°41' W 074°05'0 0.0
2017-Dec-03 11:00N 40°41' W 074°05'0 0.0
2017-Dec-03 10:30N 40°41' W 074°05'0 0.0
2017-Dec-03 10:00N 40°41' W 074°05'0 0.0
2017-Dec-03 09:30N 40°41' W 074°05'0 0.0
2017-Dec-03 09:00N 40°41' W 074°05'0 0.0
2017-Dec-03 08:30N 40°41' W 074°05'0 0.0
2017-Dec-03 08:00N 40°41' W 074°05'0 0.0
2017-Dec-03 07:30N 40°41' W 074°05'0 0.0
2017-Dec-03 07:00N 40°41' W 074°05'0 0.0
2017-Dec-03 06:30N 40°41' W 074°05'0 0.0
2017-Dec-03 06:00N 40°41' W 074°05'0 0.0
2017-Dec-03 05:30N 40°41' W 074°05'0 0.0
2017-Dec-03 05:00N 40°41' W 074°05'0 0.0
2017-Dec-03 04:30N 40°41' W 074°05'0 0.0
2017-Dec-03 04:00N 40°41' W 074°05'0 0.0
2017-Dec-03 03:30N 40°41' W 074°05'0 0.0
2017-Dec-03 03:00N 40°41' W 074°05'0 0.0
2017-Dec-03 02:30N 40°41' W 074°05'0 0.0
2017-Dec-03 02:00N 40°41' W 074°05'0 0.0
2017-Dec-03 01:30N 40°41' W 074°05'0 0.0
2017-Dec-03 01:00N 40°41' W 074°05'0 0.0
2017-Dec-03 00:30N 40°41' W 074°05'0 0.0
2017-Dec-03 00:00N 40°41' W 074°05'0 0.0
2017-Dec-02 23:30N 40°41' W 074°05'0 0.0
2017-Dec-02 23:00N 40°41' W 074°05'0 0.0
2017-Dec-02 22:30N 40°41' W 074°05'0 0.0
2017-Dec-02 22:00N 40°41' W 074°05'0 0.0
2017-Dec-02 21:30N 40°41' W 074°05'0 0.0
2017-Dec-02 21:00N 40°41' W 074°05'0 0.0
2017-Dec-02 20:30N 40°41' W 074°05'0 0.0
2017-Dec-02 20:00N 40°41' W 074°05'0 0.0
2017-Dec-02 19:30N 40°41' W 074°05'0 0.0
2017-Dec-02 19:00N 40°41' W 074°05'0 0.4
2017-Dec-02 18:30N 40°40' W 074°04'1 1.3
2017-Dec-02 18:00N 40°40' W 074°04'510.8
2017-Dec-02 17:30N 40°44' W 073°58'611.5
2017-Dec-02 17:01N 40°48' W 073°54'0 0.1
2017-Dec-02 16:30N 40°48' W 073°54'0 0.0
2017-Dec-02 16:00N 40°48' W 073°54'0 0.3
2017-Dec-02 15:30N 40°48' W 073°54'0 0.0
2017-Dec-02 15:00N 40°48' W 073°54'2 3.8
2017-Dec-02 14:30N 40°47' W 073°55'3 6.7
2017-Dec-02 14:00N 40°44' W 073°58'4 7.7
2017-Dec-02 13:30N 40°42' W 074°02'2 4.9
2017-Dec-02 13:00N 40°41' W 074°05'0 0.0
2017-Dec-02 12:30N 40°41' W 074°05'0 0.0
2017-Dec-02 12:00N 40°41' W 074°05'0 0.0
2017-Dec-02 11:30N 40°41' W 074°05'0 0.0
2017-Dec-02 11:00N 40°41' W 074°05'0 0.0
2017-Dec-02 10:30N 40°41' W 074°05'0 0.0
2017-Dec-02 10:00N 40°41' W 074°05'0 0.0
2017-Dec-02 09:30N 40°41' W 074°05'0 0.0
2017-Dec-02 09:00N 40°41' W 074°05'0 0.0
2017-Dec-02 08:30N 40°41' W 074°05'0 0.0
2017-Dec-02 08:00N 40°41' W 074°05'0 0.0
2017-Dec-02 07:30N 40°41' W 074°05'0 0.0
2017-Dec-02 07:00N 40°41' W 074°05'0 0.0
2017-Dec-02 06:30N 40°41' W 074°05'0 0.0
2017-Dec-02 06:00N 40°41' W 074°05'0 0.0
2017-Dec-02 05:30N 40°41' W 074°05'0 0.0
2017-Dec-02 05:00N 40°41' W 074°05'0 0.0
2017-Dec-02 04:30N 40°41' W 074°05'0 0.0
2017-Dec-02 04:00N 40°41' W 074°05'0 0.0
2017-Dec-02 03:30N 40°41' W 074°05'0 0.0
2017-Dec-02 03:00N 40°41' W 074°05'0 0.0
2017-Dec-02 02:30N 40°41' W 074°05'0 0.0
2017-Dec-02 02:00N 40°41' W 074°05'0 0.0
2017-Dec-02 01:30N 40°41' W 074°05'0 0.2
2017-Dec-02 01:01N 40°41' W 074°04'3 5.2
2017-Dec-02 00:30N 40°42' W 074°02'4 8.1
2017-Dec-02 00:01N 40°46' W 074°00'4 7.4
2017-Dec-01 23:30N 40°49' W 073°58'4 7.5
2017-Dec-01 23:00N 40°53' W 073°56'  

Dump ship's entire track history